Capitol Logistics 569


EBLG
Liège Airport
Liege, BE
VIDP
Indira Gandhi International Airport
New Delhi, IN

Route Details

Aircraft Information
Primary: Boeing 747-400BCF
Backup: Boeing 777-200LRF
Route Data
Distance: 4244nm
Sched. Duration: 9h 00m
Avg. Duration: 9h 22m (+22m)
Times Flown: 3
Recm'd Route: LNO MTR Z719 OSBIT UZ205 LULAR Z205 ABUDO NARKA Z650 TOMET L624 ADINA L851 ERZ W71 MUS OTKEP UM688 PEBAD UP975 SESRA M677 ITBUL M677 LOVEM M677 KURTU P321 NOLSU P307 VAXIM RASKI L639 AAE Q3 BUBNU Q1 DIPAS DIPAS5D
Planned Altitude: 31,000ft
Origin Wx: EBLG 281920Z 21019KT 9999 BKN025 12/08 Q1007 TEMPO 20022G32KT 2500 SHRA
Dest. Wx: VIDP 281900Z 00000KT 2200 FU NSC 19/11 Q1013 NOSIG
Notes:

Financial History
Total Freight: 444,593lbs
Average Load: 148,198lbs/flt
Fuel Used: 407,944lbs
Avg. Fuel Used: 135,981lbs/flt
Fuel Expense: $452,818
Avg. Fuel Expense: $150,939
Avg. Fuel Cost: $1.11/lbs
Total Gross Income: $1,738,311
Pilot Pay: $617
Total Expenses: $187,894
Total Revenue: $1,091,560
Average Revenue: $579,437.08